createdAt,value
2022-12-11T00:01:33.639Z,-0.30
2022-12-11T00:04:05.572Z,-0.30
2022-12-11T00:09:11.454Z,-0.50
2022-12-11T00:11:45.035Z,-0.50
2022-12-11T00:16:50.153Z,-0.40
2022-12-11T00:19:22.923Z,2.10
2022-12-11T00:21:54.880Z,0.50
2022-12-11T00:24:48.930Z,0.10
2022-12-11T00:27:21.075Z,-0.10
2022-12-11T00:29:53.783Z,-0.10
2022-12-11T00:32:28.205Z,-0.10
2022-12-11T00:35:01.155Z,-0.20
2022-12-11T00:37:33.106Z,-0.20
2022-12-11T00:40:06.199Z,-0.20
2022-12-11T00:42:38.130Z,-0.20
2022-12-11T00:45:12.038Z,-0.20
2022-12-11T00:47:44.580Z,-0.30
2022-12-11T00:50:17.203Z,-0.30
2022-12-11T00:52:49.910Z,-0.30
2022-12-11T00:55:21.835Z,-0.20
2022-12-11T00:57:55.437Z,-0.10
2022-12-11T01:00:27.353Z,-0.30
2022-12-11T01:03:00.169Z,-0.20
2022-12-11T01:05:33.117Z,-1.70
2022-12-11T01:08:07.664Z,-0.40
2022-12-11T01:10:39.690Z,-0.30
2022-12-11T01:13:12.580Z,-0.40
2022-12-11T01:15:45.805Z,-0.30
2022-12-11T01:18:18.512Z,-0.40
2022-12-11T01:20:50.921Z,-0.30
2022-12-11T01:23:22.816Z,-0.40
2022-12-11T01:25:55.552Z,-0.40
2022-12-11T01:28:27.441Z,-0.30
2022-12-11T01:31:00.221Z,-0.30
2022-12-11T01:33:32.199Z,-0.40
2022-12-11T01:36:18.465Z,-0.50
2022-12-11T01:38:51.102Z,-0.30
2022-12-11T01:41:23.662Z,-0.20
2022-12-11T01:44:01.340Z,-0.20
2022-12-11T01:46:36.160Z,-0.20
2022-12-11T01:49:13.359Z,-0.30
2022-12-11T01:51:58.249Z,-0.10
2022-12-11T01:54:31.924Z,-0.10
2022-12-11T01:57:08.596Z,-0.30
2022-12-11T01:59:45.545Z,-0.30
2022-12-11T02:02:37.730Z,-0.30
2022-12-11T02:05:10.902Z,-0.10
2022-12-11T02:07:55.981Z,-0.10
2022-12-11T02:11:02.236Z,-0.10
2022-12-11T02:13:50.008Z,-0.10
2022-12-11T02:16:35.523Z,-0.10
2022-12-11T02:19:58.529Z,-0.20
2022-12-11T02:22:52.680Z,-0.30
2022-12-11T02:25:59.976Z,-0.30
2022-12-11T02:28:44.360Z,-0.30
2022-12-11T02:31:36.058Z,-0.30
2022-12-11T02:34:21.944Z,-0.30
2022-12-11T02:37:04.005Z,-0.40
2022-12-11T02:39:39.219Z,-0.20
2022-12-11T02:42:34.782Z,-0.10
2022-12-11T02:45:09.735Z,-0.10
2022-12-11T02:47:44.490Z,-0.20
2022-12-11T02:50:21.401Z,-0.10
2022-12-11T02:52:58.071Z,-0.10
2022-12-11T02:55:31.974Z,-0.20
2022-12-11T02:58:27.509Z,-0.20
2022-12-11T03:01:00.306Z,-0.10
2022-12-11T03:03:32.636Z,-0.10
2022-12-11T03:06:05.322Z,-0.20
2022-12-11T03:08:38.786Z,-0.10
2022-12-11T03:11:15.780Z,-0.20
2022-12-11T03:13:48.159Z,-0.20
2022-12-11T03:16:39.745Z,-0.20
2022-12-11T03:19:30.126Z,-0.10
2022-12-11T03:22:29.456Z,-0.10
2022-12-11T03:25:18.375Z,-0.10
2022-12-11T03:28:08.054Z,-0.10
2022-12-11T03:30:42.724Z,-0.10
2022-12-11T03:33:38.859Z,-0.20
2022-12-11T03:36:22.648Z,-0.30
2022-12-11T03:39:08.402Z,-0.40
2022-12-11T03:41:41.687Z,-0.40
2022-12-11T03:44:15.151Z,-0.40
2022-12-11T03:46:50.230Z,-0.40
2022-12-11T03:49:27.909Z,-0.40
2022-12-11T03:52:01.649Z,-0.40
2022-12-11T03:54:35.141Z,-0.40
2022-12-11T03:57:10.850Z,-0.30
2022-12-11T04:02:15.862Z,-0.40
2022-12-11T04:04:47.730Z,-0.40
2022-12-11T04:07:19.994Z,-0.40
2022-12-11T04:09:51.840Z,-0.40
2022-12-11T04:12:24.835Z,-0.40
2022-12-11T04:15:02.454Z,-0.40
2022-12-11T04:17:55.635Z,-0.40
2022-12-11T04:20:46.496Z,-0.50
2022-12-11T04:23:38.281Z,-0.50
2022-12-11T04:26:17.675Z,-0.50
2022-12-11T04:28:50.193Z,-0.50
2022-12-11T04:31:23.589Z,-0.50
2022-12-11T04:33:55.963Z,-0.50
2022-12-11T04:39:01.122Z,-0.50
2022-12-11T04:41:35.607Z,-0.40
2022-12-11T04:44:08.559Z,-0.40
2022-12-11T04:46:41.297Z,-0.30
2022-12-11T04:49:13.643Z,-0.20
2022-12-11T04:51:46.449Z,-0.20
2022-12-11T04:54:18.321Z,-0.20
2022-12-11T04:56:51.049Z,-0.30
2022-12-11T04:59:22.964Z,-0.40
2022-12-11T05:01:55.730Z,-0.40
2022-12-11T05:04:33.571Z,-0.60
2022-12-11T05:07:05.482Z,-0.50
2022-12-11T05:09:38.479Z,-0.70
2022-12-11T05:12:10.378Z,-0.70
2022-12-11T05:14:43.811Z,-0.90
2022-12-11T05:17:45.765Z,-0.90
2022-12-11T05:20:18.546Z,0.50
2022-12-11T05:22:50.856Z,0.40
2022-12-11T05:25:22.845Z,-0.50
2022-12-11T05:27:55.353Z,-0.70
2022-12-11T05:30:27.229Z,-0.70
2022-12-11T05:32:59.955Z,-0.80
2022-12-11T05:35:32.667Z,-0.90
2022-12-11T05:38:05.016Z,-0.90
2022-12-11T05:40:37.173Z,-1.00
2022-12-11T05:43:10.122Z,-1.00
2022-12-11T05:45:41.963Z,-1.00
2022-12-11T05:48:14.679Z,-0.90
2022-12-11T05:51:01.416Z,-0.90
2022-12-11T05:53:33.678Z,-1.00
2022-12-11T05:56:16.657Z,-1.10
2022-12-11T05:58:50.679Z,-1.10
2022-12-11T06:01:28.665Z,-1.30
2022-12-11T06:04:02.140Z,-1.40
2022-12-11T06:06:34.609Z,-1.40
2022-12-11T06:11:39.972Z,-1.40
2022-12-11T06:14:12.802Z,-1.50
2022-12-11T06:16:44.896Z,-1.50
2022-12-11T06:19:18.909Z,-1.50
2022-12-11T06:21:50.819Z,-1.50
2022-12-11T06:24:23.511Z,-1.60
2022-12-11T06:26:55.401Z,-1.60
2022-12-11T06:29:28.220Z,-1.70
2022-12-11T06:32:00.281Z,-1.80
2022-12-11T06:34:32.623Z,-1.80
2022-12-11T06:37:04.503Z,-1.90
2022-12-11T06:39:37.189Z,-2.10
2022-12-11T06:42:09.571Z,-2.20
2022-12-11T06:44:41.511Z,-2.20
2022-12-11T06:49:48.266Z,-2.10
2022-12-11T06:52:22.868Z,-2.00
2022-12-11T06:54:55.546Z,-2.00
2022-12-11T06:57:28.503Z,-2.00
2022-12-11T07:00:00.397Z,-2.10
2022-12-11T07:02:33.160Z,-2.10
2022-12-11T07:05:06.143Z,-2.20
2022-12-11T07:07:38.267Z,-2.20
2022-12-11T07:10:11.586Z,-2.10
2022-12-11T07:12:43.441Z,-2.20
2022-12-11T07:15:16.464Z,-2.30
2022-12-11T07:17:48.807Z,-2.20
2022-12-11T07:20:20.678Z,-2.30
2022-12-11T07:22:54.815Z,-2.30
2022-12-11T07:25:27.600Z,-2.30
2022-12-11T07:30:33.315Z,-3.90
2022-12-11T07:33:05.740Z,-2.30
2022-12-11T07:35:39.704Z,-2.40
2022-12-11T07:38:11.719Z,-2.30
2022-12-11T07:40:44.424Z,-2.40
2022-12-11T07:45:49.655Z,-2.20
2022-12-11T07:48:21.570Z,-2.10
2022-12-11T07:50:54.265Z,-2.00
2022-12-11T07:53:26.200Z,-2.00
2022-12-11T07:56:00.351Z,-1.90
2022-12-11T08:01:10.251Z,-1.80
2022-12-11T08:03:43.465Z,-1.80
2022-12-11T08:06:15.396Z,-1.60
2022-12-11T08:08:48.449Z,-1.40
2022-12-11T08:11:21.827Z,-1.40
2022-12-11T08:13:53.836Z,-1.50
2022-12-11T08:16:27.589Z,-1.40
2022-12-11T08:21:34.564Z,-1.50
2022-12-11T08:24:10.494Z,-1.60
2022-12-11T08:26:42.577Z,-1.50
2022-12-11T08:29:15.582Z,-1.40
2022-12-11T08:31:47.518Z,0.30
2022-12-11T08:34:20.250Z,0.10
2022-12-11T08:36:52.560Z,-0.20
2022-12-11T08:39:25.261Z,-0.20
2022-12-11T08:41:58.002Z,-0.40
2022-12-11T08:44:30.252Z,-0.60
2022-12-11T08:47:03.063Z,-0.60
2022-12-11T08:49:35.650Z,-0.70
2022-12-11T08:52:07.676Z,-0.70
2022-12-11T08:54:40.512Z,-0.30
2022-12-11T08:57:12.437Z,-0.30
2022-12-11T08:59:46.335Z,-0.30
2022-12-11T09:02:18.276Z,-0.10
2022-12-11T09:04:51.145Z,0.00
2022-12-11T09:07:23.943Z,-0.10
2022-12-11T09:09:55.975Z,0.20
2022-12-11T09:12:29.174Z,0.50
2022-12-11T09:15:01.486Z,1.10
2022-12-11T09:17:58.912Z,1.40
2022-12-11T09:20:31.655Z,1.50
2022-12-11T09:23:03.593Z,2.00
2022-12-11T09:25:40.772Z,2.60
2022-12-11T09:28:12.810Z,2.80
2022-12-11T09:33:18.385Z,2.80
2022-12-11T09:36:01.384Z,2.60
2022-12-11T09:38:34.471Z,2.60
2022-12-11T09:41:51.905Z,2.20
2022-12-11T09:44:35.053Z,2.60
2022-12-11T09:47:20.862Z,2.20
2022-12-11T09:50:18.618Z,1.90
2022-12-11T09:53:17.109Z,1.90
2022-12-11T09:56:16.231Z,2.10
2022-12-11T09:59:17.432Z,2.40
2022-12-11T10:02:34.556Z,2.30
2022-12-11T10:05:46.477Z,3.00
2022-12-11T10:08:55.443Z,2.60
2022-12-11T10:11:57.453Z,2.70
2022-12-11T10:17:20.949Z,2.50
2022-12-11T10:19:53.539Z,2.30
2022-12-11T10:22:30.965Z,2.40
2022-12-11T10:25:11.975Z,2.20
2022-12-11T10:30:18.420Z,2.70
2022-12-11T10:33:05.512Z,2.60
2022-12-11T10:35:54.450Z,2.70
2022-12-11T10:38:33.003Z,2.70
2022-12-11T10:41:14.892Z,3.20
2022-12-11T10:43:50.419Z,3.40
2022-12-11T10:46:29.839Z,3.90
2022-12-11T10:49:02.146Z,4.00
2022-12-11T10:51:37.882Z,5.10
2022-12-11T10:54:34.076Z,4.50
2022-12-11T10:57:10.472Z,5.60
2022-12-11T10:59:50.805Z,5.00
2022-12-11T11:02:27.745Z,4.00
2022-12-11T11:05:12.846Z,3.50
2022-12-11T11:07:45.579Z,3.20
2022-12-11T11:10:18.750Z,3.10
2022-12-11T11:13:01.333Z,3.30
2022-12-11T11:18:26.114Z,3.30
2022-12-11T11:23:31.948Z,2.90
2022-12-11T11:26:09.626Z,3.40
2022-12-11T11:28:55.244Z,3.70
2022-12-11T11:31:35.913Z,3.70
2022-12-11T11:34:10.805Z,3.20
2022-12-11T11:39:45.467Z,2.30
2022-12-11T11:42:44.240Z,2.10
2022-12-11T11:45:23.117Z,1.90
2022-12-11T11:48:28.071Z,1.90
2022-12-11T11:51:13.735Z,1.60
2022-12-11T11:53:51.511Z,1.70
2022-12-11T11:56:36.486Z,1.80
2022-12-11T11:59:32.075Z,1.70
2022-12-11T12:02:16.926Z,1.60
2022-12-11T12:04:51.650Z,1.60
2022-12-11T12:07:58.877Z,1.70
2022-12-11T12:10:52.835Z,1.90
2022-12-11T12:13:55.343Z,1.90
2022-12-11T12:16:52.666Z,2.00
2022-12-11T12:19:56.427Z,2.00
2022-12-11T12:23:11.369Z,1.80
2022-12-11T12:26:02.238Z,1.60
2022-12-11T12:28:55.781Z,1.30
2022-12-11T12:32:04.895Z,1.50
2022-12-11T12:34:48.563Z,1.30
2022-12-11T12:37:57.936Z,1.30
2022-12-11T12:41:14.625Z,1.20
2022-12-11T12:44:01.017Z,1.00
2022-12-11T12:46:56.134Z,0.90
2022-12-11T12:49:46.822Z,0.90
2022-12-11T12:52:34.630Z,0.80
2022-12-11T12:55:16.426Z,0.70
2022-12-11T12:58:25.742Z,2.30
2022-12-11T13:01:23.401Z,0.90
2022-12-11T13:04:08.632Z,0.50
2022-12-11T13:06:47.680Z,0.50
2022-12-11T13:09:26.404Z,-0.10
2022-12-11T13:11:59.280Z,0.00
2022-12-11T13:14:33.724Z,-0.20
2022-12-11T13:17:39.088Z,0.30
2022-12-11T13:20:19.453Z,0.50
2022-12-11T13:23:07.380Z,0.40
2022-12-11T13:25:54.657Z,0.50
2022-12-11T13:28:40.648Z,0.50
2022-12-11T13:31:15.610Z,0.40
2022-12-11T13:33:58.158Z,0.30
2022-12-11T13:36:34.276Z,0.20
2022-12-11T13:39:18.055Z,0.40
2022-12-11T13:41:58.669Z,0.40
2022-12-11T13:44:39.410Z,0.20
2022-12-11T13:47:16.446Z,-0.30
2022-12-11T13:49:55.338Z,-0.30
2022-12-11T13:52:28.486Z,0.00
2022-12-11T13:57:33.956Z,0.20
2022-12-11T14:00:23.417Z,0.30
2022-12-11T14:02:58.610Z,0.40
2022-12-11T14:05:30.808Z,0.40
2022-12-11T14:08:10.823Z,0.40
2022-12-11T14:13:26.062Z,0.50
2022-12-11T14:15:58.593Z,0.50
2022-12-11T14:18:34.738Z,0.10
2022-12-11T14:21:07.145Z,-0.60
2022-12-11T14:23:39.946Z,-0.90
2022-12-11T14:26:24.745Z,-0.80
2022-12-11T14:28:57.619Z,-0.90
2022-12-11T14:31:37.939Z,-0.60
2022-12-11T14:34:17.739Z,-0.70
2022-12-11T14:36:51.120Z,-0.60
2022-12-11T14:39:56.136Z,-0.50
2022-12-11T14:42:34.427Z,-0.40
2022-12-11T14:45:28.230Z,-0.30
2022-12-11T14:48:28.904Z,-0.40
2022-12-11T14:51:04.063Z,-0.60
2022-12-11T14:53:45.733Z,-0.70
2022-12-11T14:56:28.068Z,-0.70
2022-12-11T14:59:06.806Z,-0.70
2022-12-11T15:02:25.576Z,-0.60
2022-12-11T15:05:18.139Z,-0.70
2022-12-11T15:08:11.030Z,-0.80
2022-12-11T15:11:08.105Z,-0.80
2022-12-11T15:14:00.608Z,-0.90
2022-12-11T15:16:37.905Z,-0.90
2022-12-11T15:19:27.490Z,-1.00
2022-12-11T15:22:06.616Z,-0.90
2022-12-11T15:24:42.755Z,-0.90
2022-12-11T15:27:39.485Z,-0.90
2022-12-11T15:30:27.287Z,-0.80
2022-12-11T15:33:32.541Z,-0.90
2022-12-11T15:36:24.287Z,-1.00
2022-12-11T15:41:33.311Z,-1.00
2022-12-11T15:46:38.601Z,-1.10
2022-12-11T15:49:14.873Z,-1.10
2022-12-11T15:51:46.889Z,-1.10
2022-12-11T15:54:19.663Z,-1.20
2022-12-11T15:56:51.557Z,-1.30
2022-12-11T15:59:24.304Z,-1.30
2022-12-11T16:01:56.863Z,-1.30
2022-12-11T16:04:35.337Z,-1.20
2022-12-11T16:07:18.180Z,-1.30
2022-12-11T16:09:51.110Z,-1.30
2022-12-11T16:12:23.474Z,-1.30
2022-12-11T16:17:28.848Z,-1.40
2022-12-11T16:22:34.020Z,-1.40
2022-12-11T16:25:06.662Z,-1.40
2022-12-11T16:27:39.431Z,-1.50
2022-12-11T16:30:12.431Z,-1.40
2022-12-11T16:35:22.201Z,-1.60
2022-12-11T16:37:55.727Z,-1.60
2022-12-11T16:40:28.390Z,-1.60
2022-12-11T16:43:00.694Z,-1.60
2022-12-11T16:45:34.314Z,-1.60
2022-12-11T16:48:07.212Z,-1.60
2022-12-11T16:50:40.839Z,-1.70
2022-12-11T16:53:14.680Z,-1.60
2022-12-11T16:55:47.006Z,-1.70
2022-12-11T16:58:20.125Z,-1.80
2022-12-11T17:00:52.882Z,-1.80
2022-12-11T17:05:59.011Z,-1.90
2022-12-11T17:08:30.962Z,-1.80
2022-12-11T17:11:08.363Z,-1.90
2022-12-11T17:13:40.504Z,-2.00
2022-12-11T17:16:16.447Z,-1.90
2022-12-11T17:18:48.419Z,-1.90
2022-12-11T17:21:22.633Z,-2.00
2022-12-11T17:23:54.643Z,-2.10
2022-12-11T17:26:28.953Z,-2.00
2022-12-11T17:29:01.526Z,-2.10
2022-12-11T17:31:33.638Z,-2.10
2022-12-11T17:34:06.812Z,-2.20
2022-12-11T17:36:38.705Z,-2.20
2022-12-11T17:39:13.815Z,-2.30
2022-12-11T17:41:46.123Z,-2.30
2022-12-11T17:44:19.069Z,-2.40
2022-12-11T17:46:51.650Z,-2.30
2022-12-11T17:49:24.945Z,-2.40
2022-12-11T17:51:57.788Z,-2.40
2022-12-11T17:57:31.341Z,-2.40
2022-12-11T18:00:08.335Z,-2.30
2022-12-11T18:02:48.357Z,-2.40
2022-12-11T18:08:37.315Z,-2.40
2022-12-11T18:11:17.186Z,-2.30
2022-12-11T18:13:59.335Z,-2.30
2022-12-11T18:16:39.321Z,-2.40
2022-12-11T18:19:17.935Z,-2.40
2022-12-11T18:21:52.732Z,-2.50
2022-12-11T18:24:31.979Z,-2.60
2022-12-11T18:27:04.087Z,-2.70
2022-12-11T18:29:37.099Z,-2.70
2022-12-11T18:32:09.084Z,-2.20
2022-12-11T18:37:14.152Z,-2.60
2022-12-11T18:42:35.842Z,-2.70
2022-12-11T18:48:02.868Z,-2.80
2022-12-11T18:50:36.092Z,-2.80
2022-12-11T18:53:07.998Z,-2.80
2022-12-11T18:55:45.432Z,-2.80
2022-12-11T18:58:19.189Z,-2.80
2022-12-11T19:00:51.629Z,-2.90
2022-12-11T19:03:23.571Z,-3.00
2022-12-11T19:05:56.010Z,-3.00
2022-12-11T19:08:27.948Z,-3.10
2022-12-11T19:11:00.395Z,-3.20
2022-12-11T19:13:33.244Z,-3.30
2022-12-11T19:16:05.936Z,-3.40
2022-12-11T19:18:37.910Z,-3.40
2022-12-11T19:21:15.556Z,-3.50
2022-12-11T19:23:47.841Z,-3.40
2022-12-11T19:26:23.455Z,-3.40
2022-12-11T19:28:59.857Z,-3.40
2022-12-11T19:31:33.248Z,-3.50
2022-12-11T19:34:05.247Z,-3.40
2022-12-11T19:36:37.648Z,-3.40
2022-12-11T19:39:12.810Z,-2.20
2022-12-11T19:41:46.540Z,-2.80
2022-12-11T19:44:18.668Z,-3.00
2022-12-11T19:46:51.170Z,-3.20
2022-12-11T19:49:24.198Z,-3.20
2022-12-11T19:51:58.178Z,-3.20
2022-12-11T19:54:32.249Z,-3.20
2022-12-11T19:57:04.808Z,-3.20
2022-12-11T19:59:36.815Z,-3.30
2022-12-11T20:02:12.177Z,-3.30
2022-12-11T20:04:44.134Z,-3.30
2022-12-11T20:07:16.611Z,-3.30
2022-12-11T20:09:48.560Z,-3.10
2022-12-11T20:12:21.212Z,-3.10
2022-12-11T20:14:55.365Z,-3.10
2022-12-11T20:17:27.849Z,-3.10
2022-12-11T20:19:59.862Z,-3.20
2022-12-11T20:22:32.329Z,-3.30
2022-12-11T20:25:04.648Z,-3.30
2022-12-11T20:27:39.379Z,-3.30
2022-12-11T20:30:12.409Z,-3.30
2022-12-11T20:32:45.290Z,-3.30
2022-12-11T20:35:17.249Z,-3.30
2022-12-11T20:37:49.655Z,-3.30
2022-12-11T20:40:21.578Z,-3.30
2022-12-11T20:42:54.120Z,-3.30
2022-12-11T20:45:27.233Z,-3.30
2022-12-11T20:47:59.719Z,-3.30
2022-12-11T20:50:31.658Z,-3.40
2022-12-11T20:53:04.196Z,-3.40
2022-12-11T20:55:40.705Z,-3.40
2022-12-11T20:58:13.082Z,-3.40
2022-12-11T21:00:45.015Z,-3.40
2022-12-11T21:03:17.526Z,-3.40
2022-12-11T21:05:49.416Z,-3.50
2022-12-11T21:08:21.823Z,-3.50
2022-12-11T21:10:53.798Z,-3.50
2022-12-11T21:13:25.998Z,-3.40
2022-12-11T21:16:06.172Z,-3.40
2022-12-11T21:18:39.874Z,-3.50
2022-12-11T21:21:12.145Z,-3.50
2022-12-11T21:23:44.694Z,-3.60
2022-12-11T21:26:18.143Z,-3.60
2022-12-11T21:31:23.198Z,-3.70
2022-12-11T21:33:55.642Z,-3.60
2022-12-11T21:36:27.559Z,-3.70
2022-12-11T21:39:01.237Z,-3.70
2022-12-11T21:41:33.736Z,-3.70
2022-12-11T21:46:58.858Z,-3.80
2022-12-11T21:49:31.530Z,-3.80
2022-12-11T21:52:03.924Z,-4.00
2022-12-11T21:54:36.799Z,-4.00
2022-12-11T21:57:08.822Z,-3.80
2022-12-11T21:59:41.196Z,-3.90
2022-12-11T22:02:13.200Z,-3.90
2022-12-11T22:04:47.621Z,-3.80
2022-12-11T22:07:19.563Z,-3.90
2022-12-11T22:09:51.719Z,-3.80
2022-12-11T22:12:27.551Z,-3.90
2022-12-11T22:14:59.958Z,-3.90
2022-12-11T22:17:32.957Z,-3.90
2022-12-11T22:20:06.774Z,-3.90
2022-12-11T22:22:38.743Z,-3.90
2022-12-11T22:25:11.756Z,-4.00
2022-12-11T22:27:43.849Z,-3.90
2022-12-11T22:30:16.333Z,-3.90
2022-12-11T22:32:48.457Z,-3.90
2022-12-11T22:35:25.526Z,-3.80
2022-12-11T22:37:59.312Z,-3.80
2022-12-11T22:40:32.577Z,-3.80
2022-12-11T22:43:04.499Z,-3.70
2022-12-11T22:45:40.779Z,-3.60
2022-12-11T22:48:13.110Z,-3.60
2022-12-11T22:50:45.366Z,-3.40
2022-12-11T22:53:17.293Z,-3.40
2022-12-11T22:55:49.798Z,-3.50
2022-12-11T22:58:22.119Z,-3.50
2022-12-11T23:00:54.584Z,-3.50
2022-12-11T23:03:26.886Z,-3.50
2022-12-11T23:06:04.876Z,-3.40
2022-12-11T23:08:38.437Z,-3.50
2022-12-11T23:11:24.107Z,-3.60
2022-12-11T23:13:56.888Z,-3.60
2022-12-11T23:16:29.369Z,-3.60
2022-12-11T23:19:01.310Z,-3.70
2022-12-11T23:21:34.558Z,-3.70
2022-12-11T23:26:40.251Z,-4.00
2022-12-11T23:29:12.268Z,-4.10
2022-12-11T23:31:44.683Z,-4.00
2022-12-11T23:34:16.571Z,-4.10
2022-12-11T23:36:48.997Z,-4.20
2022-12-11T23:39:20.964Z,-4.20
2022-12-11T23:41:53.364Z,-4.30
2022-12-11T23:44:25.288Z,-4.40
2022-12-11T23:47:34.975Z,-4.40
2022-12-11T23:50:07.287Z,-4.50
2022-12-11T23:52:39.638Z,-4.50
2022-12-11T23:55:12.377Z,-4.40
2022-12-11T23:57:44.906Z,-4.40
